Terminal Aerodrome Forecast
Issued by NWS

Home | Current Version | Previous Version | Text Only | Print | Product List | Glossary On
Versions: 1 2 3 4 5 6 7 8 9 10 11 12 13 14 15 16 17 18 19 20
247
FTUS41 KPBZ 261129
TAFLBE
TAF
KLBE 261129Z 2612/2712 00000KT 6SM BR SCT001
      TEMPO 2612/2613 00000KT 2SM BR SCT001
     FM261400 16003KT P6SM FEW040=

USA.gov is the U.S. government's official web portal to all federal, state and local government web resources and services.